Time;durP1;ratioP1;P1;durP2;ratioP2;P2;SDS_P1;SDS_P2;PMS_P1;PMS_P2;Temp;Humidity;BMP_temperature;BMP_pressure;BME280_temperature;BME280_humidity;BME280_pressure;Samples;Min_cycle;Max_cycle;Signal;HPM_P1;HPM_P2
2023/09/23 00:01:04;;;;;;;2.58;2.20;;;;;;;;;;4695243;30;20048;-82
2023/09/23 00:03:33;;;;;;;2.33;2.13;;;;;;;;;;4721300;30;20056;-83
2023/09/23 00:06:00;;;;;;;4.60;2.10;;;;;;;;;;4723854;30;20072;-82
2023/09/23 00:08:27;;;;;;;3.55;2.47;;;;;;;;;;4689379;30;20052;-83
2023/09/23 00:10:53;;;;;;;2.67;2.47;;;;;;;;;;4689245;30;20840;-82
2023/09/23 00:13:21;;;;;;;2.45;2.05;;;;;;;;;;4703641;30;20213;-85
2023/09/23 00:15:49;;;;;;;2.30;1.65;;;;;;;;;;4704711;30;20056;-83
2023/09/23 00:18:17;;;;;;;4.60;1.70;;;;;;;;;;4703894;30;20057;-83
2023/09/23 00:20:43;;;;;;;1.50;1.40;;;;;;;;;;4703427;30;20052;-85
2023/09/23 00:23:10;;;;;;;1.88;1.60;;;;;;;;;;4692073;30;20527;-88
2023/09/23 00:25:36;;;;;;;3.38;1.50;;;;;;;;;;4711064;30;20049;-82
2023/09/23 00:28:02;;;;;;;1.40;1.30;;;;;;;;;;4675199;30;20116;-86
2023/09/23 00:30:28;;;;;;;2.15;1.33;;;;;;;;;;4708575;30;20418;-85
2023/09/23 00:32:54;;;;;;;2.92;1.48;;;;;;;;;;4720717;30;20122;-82
2023/09/23 00:35:20;;;;;;;1.33;1.13;;;;;;;;;;4705775;30;20103;-82
2023/09/23 00:37:51;;;;;;;0.95;0.93;;;;;;;;;;4688915;30;20529;-84
2023/09/23 00:40:18;;;;;;;1.60;1.30;;;;;;;;;;4689880;30;20531;-84
2023/09/23 00:42:47;;;;;;;1.67;1.00;;;12.90;5.80;;;;;;4681407;30;20503;-87
2023/09/23 00:45:16;;;;;;;1.67;1.00;;;;;;;;;;4708662;30;20132;-82
2023/09/23 00:47:46;;;;;;;1.30;1.20;;;;;;;;;;4720579;30;20060;-84
2023/09/23 00:50:18;;;;;;;1.60;1.08;;;;;;;;;;4734577;30;20049;-81
2023/09/23 00:52:47;;;;;;;1.95;1.08;;;;;;;;;;4696703;30;20140;-81
2023/09/23 00:55:16;;;;;;;4.57;1.10;;;;;;;;;;4734774;30;20051;-83
2023/09/23 00:57:43;;;;;;;2.40;1.13;;;;;;;;;;4719867;30;20115;-83
2023/09/23 01:00:23;;;;;;;2.25;1.10;;;;;;;;;;4702606;30;20500;-82
2023/09/23 01:02:49;;;;;;;1.55;1.20;;;;;;;;;;4675403;30;20061;-83
2023/09/23 01:05:18;;;;;;;1.30;1.10;;;;;;;;;;4674012;30;20091;-83
2023/09/23 01:07:46;;;;;;;1.20;1.10;;;;;;;;;;4689165;30;20057;-86
2023/09/23 01:10:12;;;;;;;1.58;1.27;;;;;;;;;;4701623;30;20072;-90
2023/09/23 01:12:38;;;;;;;2.13;1.25;;;;;;;;;;4719486;30;20411;-83
2023/09/23 01:15:17;;;;;;;1.85;1.45;;;;;;;;;;4720141;30;20052;-85
2023/09/23 01:17:46;;;;;;;1.00;1.00;;;;;;;;;;4704038;30;20076;-87
2023/09/23 01:20:14;;;;;;;7.32;1.40;;;;;;;;;;4712893;30;20492;-85
2023/09/23 01:22:40;;;;;;;0.80;0.80;;;;;;;;;;4673861;30;20065;-85
2023/09/23 01:25:06;;;;;;;1.52;1.08;;;;;;;;;;4702253;30;20132;-82
2023/09/23 01:27:35;;;;;;;1.48;1.35;;;;;;;;;;4674272;30;20057;-85
2023/09/23 01:30:03;;;;;;;1.75;1.33;;;;;;;;;;4706538;30;20080;-91
2023/09/23 01:32:45;;;;;;;2.05;1.38;;;;;;;;;;4705548;30;20052;-85
2023/09/23 01:35:11;;;;;;;1.23;1.10;;;;;;;;;;4719670;30;20143;-85
2023/09/23 01:37:38;;;;;;;2.25;1.25;;;;;;;;;;4718732;30;20057;-90
2023/09/23 01:40:05;;;;;;;1.20;1.10;;;;;;;;;;4715618;30;20407;-85
2023/09/23 01:42:35;;;;;;;1.60;1.40;;;;;;;;;;4687818;30;20061;-84
2023/09/23 01:45:03;;;;;;;2.55;1.60;;;;;;;;;;4674147;30;20511;-86
2023/09/23 01:47:30;;;;;;;6.35;1.80;;;;;;;;;;4673927;30;20053;-84
2023/09/23 01:49:56;;;;;;;2.58;1.40;;;;;;;;;;4705215;30;20124;-84
2023/09/23 01:52:22;;;;;;;1.83;1.60;;;;;;;;;;4719219;30;20514;-84
2023/09/23 01:54:48;;;;;;;2.15;1.30;;;;;;;;;;4718876;30;20393;-84
2023/09/23 01:57:17;;;;;;;1.75;1.63;;;;;;;;;;4715314;30;20068;-84
2023/09/23 01:59:43;;;;;;;1.52;1.30;;;12.60;9.30;;;;;;4687336;30;20060;-86
2023/09/23 02:02:10;;;;;;;1.80;1.40;;;;;;;;;;4686820;30;20095;-83
2023/09/23 02:04:37;;;;;;;2.42;1.60;;;;;;;;;;4673298;30;20123;-82
2023/09/23 02:07:07;;;;;;;4.32;1.60;;;;;;;;;;4702398;30;20045;-82
2023/09/23 02:09:34;;;;;;;1.88;1.40;;;;;;;;;;4686988;30;20084;-82
2023/09/23 02:12:00;;;;;;;1.65;1.42;;;;;;;;;;4687665;30;20060;-85
2023/09/23 02:14:26;;;;;;;3.05;1.40;;;;;;;;;;4701427;30;20474;-81
2023/09/23 02:16:54;;;;;;;2.78;1.33;;;;;;;;;;4692439;30;20044;-84
2023/09/23 02:19:21;;;;;;;2.05;1.73;;;;;;;;;;4718999;30;20063;-84
2023/09/23 02:21:48;;;;;;;1.40;1.30;;;;;;;;;;4733469;30;20561;-82
2023/09/23 02:24:15;;;;;;;2.22;1.80;;;;;;;;;;4733035;30;20060;-84
2023/09/23 02:26:41;;;;;;;1.60;1.50;;;;;;;;;;4699577;30;20052;-84
2023/09/23 02:29:07;;;;;;;2.25;1.67;;;;;;;;;;4687234;30;20525;-85
2023/09/23 02:31:35;;;;;;;2.65;1.92;;;;;;;;;;4672593;30;20575;-83
2023/09/23 02:34:02;;;;;;;2.50;2.30;;;;;;;;;;4687073;30;20080;-82
2023/09/23 02:36:28;;;;;;;2.85;2.05;;;;;;;;;;4695270;30;20063;-83
2023/09/23 02:38:54;;;;;;;2.33;2.13;;;;;;;;;;4709330;30;20069;-83
2023/09/23 02:41:22;;;;;;;4.78;2.53;;;;;;;;;;4686927;30;20205;-83
2023/09/23 02:43:48;;;;;;;3.58;2.60;;;;;;;;;;4690954;30;20052;-83
2023/09/23 02:46:15;;;;;;;4.05;2.40;;;;;;;;;;4732745;30;20110;-83
2023/09/23 02:48:41;;;;;;;4.10;3.20;;;;;;;;;;4709709;30;20100;-83
2023/09/23 02:51:07;;;;;;;3.72;2.70;;;;;;;;;;4686745;30;20049;-83
2023/09/23 02:53:33;;;;;;;3.50;3.20;;;;;;;;;;4686574;30;20049;-85
2023/09/23 02:56:06;;;;;;;2.95;2.75;;;12.30;17.10;;;;;;4672023;30;20511;-85
2023/09/23 02:58:32;;;;;;;5.00;3.50;;;;;;;;;;4707743;30;20061;-86
2023/09/23 03:01:01;;;;;;;5.85;3.53;;;;;;;;;;4718514;30;20063;-84
2023/09/23 03:03:30;;;;;;;3.85;3.53;;;;;;;;;;4718259;30;20049;-85
2023/09/23 03:05:57;;;;;;;6.45;3.97;;;;;;;;;;4717757;30;20053;-84
2023/09/23 03:08:24;;;;;;;3.53;3.22;;;12.20;12.20;;;;;;4712402;30;20061;-83
2023/09/23 03:10:52;;;;;;;5.65;4.22;;;;;;;;;;4708548;30;20567;-87
2023/09/23 03:13:19;;;;;;;6.07;4.65;;;;;;;;;;4733043;30;20103;-88
2023/09/23 03:18:36;;;;;;;6.95;4.97;;;;;;;;;;4721801;30;20495;-86
2023/09/23 03:21:08;;;;;;;5.68;4.45;;;;;;;;;;4712994;30;20052;-86
2023/09/23 03:23:39;;;;;;;5.82;4.28;;;;;;;;;;4689859;30;20068;-86
2023/09/23 03:26:06;;;;;;;8.73;4.95;;;;;;;;;;4703979;30;20088;-85
2023/09/23 03:28:34;;;;;;;7.75;5.10;;;;;;;;;;4689913;30;20045;-89
2023/09/23 03:31:01;;;;;;;6.53;5.45;;;;;;;;;;4697593;30;20116;-86
2023/09/23 03:33:27;;;;;;;7.57;5.60;;;;;;;;;;4721580;30;20055;-85
2023/09/23 03:35:54;;;;;;;7.88;5.47;;;;;;;;;;4737017;30;20060;-86
2023/09/23 03:38:20;;;;;;;8.80;5.88;;;;;;;;;;4736900;30;20123;-86
2023/09/23 03:40:50;;;;;;;13.98;6.07;;;;;;;;;;4730406;30;20049;-85
2023/09/23 03:43:16;;;;;;;7.18;5.45;;;;;;;;;;4689759;30;20060;-85
2023/09/23 03:45:42;;;;;;;8.45;5.68;;;;;;;;;;4690111;30;20084;-85
2023/09/23 03:48:10;;;;;;;8.98;5.57;;;;;;;;;;4704303;30;20057;-88
2023/09/23 03:50:37;;;;;;;8.02;5.45;;;;;;;;;;4698980;30;20048;-88
2023/09/23 03:53:03;;;;;;;7.65;5.68;;;;;;;;;;4735850;30;20088;-88
2023/09/23 03:55:29;;;;;;;5.60;5.03;;;;;;;;;;4706792;30;20114;-88
2023/09/23 03:57:56;;;;;;;6.53;5.70;;;;;;;;;;4735920;30;20064;-88
2023/09/23 04:00:26;;;;;;;7.13;5.72;;;;;;;;;;4720757;30;20060;-90
2023/09/23 04:02:52;;;;;;;6.65;5.95;;;;;;;;;;4721882;30;20048;-91
2023/09/23 04:05:20;;;;;;;7.93;5.50;;;;;;;;;;4721958;30;20041;-85
2023/09/23 04:07:49;;;;;;;8.57;5.90;;;;;;;;;;4708347;30;20049;-89
2023/09/23 04:10:22;;;;;;;7.15;5.55;;;;;;;;;;4681119;30;20499;-89
2023/09/23 04:12:49;;;;;;;9.35;6.32;;;;;;;;;;4720972;30;20084;-89
2023/09/23 04:15:15;;;;;;;7.28;6.50;;;;;;;;;;4706611;30;20087;-90
2023/09/23 04:17:41;;;;;;;12.07;6.22;;;;;;;;;;4735861;30;20053;-90
2023/09/23 04:20:09;;;;;;;9.68;6.70;;;;;;;;;;4731087;30;20045;-91
2023/09/23 04:22:40;;;;;;;7.15;6.45;;;;;;;;;;4689972;30;20056;-88
2023/09/23 04:25:07;;;;;;;10.48;7.20;;;;;;;;;;4703865;30;20049;-89
2023/09/23 04:27:33;;;;;;;7.30;6.60;;;;;;;;;;4703832;30;20080;-88
2023/09/23 04:30:01;;;;;;;10.45;6.78;;;;;;;;;;4702177;30;20045;-88
2023/09/23 04:32:28;;;;;;;9.23;6.85;;;;;;;;;;4720736;30;20514;-88
2023/09/23 04:34:55;;;;;;;10.68;7.60;;;;;;;;;;4720850;30;20052;-90
2023/09/23 04:37:23;;;;;;;9.27;7.13;;;;;;;;;;4704450;30;20057;-88
2023/09/23 04:39:50;;;;;;;7.57;6.75;;;;;;;;;;4735377;30;20048;-89
2023/09/23 04:42:17;;;;;;;9.05;7.15;;;;;;;;;;4734830;30;20510;-86
2023/09/23 04:44:43;;;;;;;8.18;6.70;;;;;;;;;;4720729;30;20095;-88
2023/09/23 04:47:11;;;;;;;10.35;6.90;;;;;;;;;;4718246;30;20052;-89
2023/09/23 04:49:37;;;;;;;10.30;7.50;;;;;;;;;;4720402;30;20056;-90
2023/09/23 04:52:04;;;;;;;14.00;7.47;;;;;;;;;;4706224;30;20087;-88
2023/09/23 04:54:30;;;;;;;8.10;7.25;;;;;;;;;;4734858;30;20165;-87
2023/09/23 04:56:56;;;;;;;8.18;7.38;;;;;;;;;;4696422;30;20056;-88
2023/09/23 04:59:22;;;;;;;7.72;6.82;;;;;;;;;;4688317;30;20061;-86
2023/09/23 05:01:48;;;;;;;7.75;6.82;;;;;;;;;;4688685;30;20053;-89
2023/09/23 05:04:14;;;;;;;10.00;7.18;;;;;;;;;;4702863;30;20123;-87
2023/09/23 05:06:40;;;;;;;10.40;7.18;;;;;;;;;;4694622;30;20426;-89
2023/09/23 05:09:08;;;;;;;8.93;6.82;;;;;;;;;;4733484;30;20044;-89
2023/09/23 05:11:35;;;;;;;8.50;6.60;;;;;;;;;;4720323;30;20062;-87
2023/09/23 05:14:04;;;;;;;7.25;6.43;;;;;;;;;;4720110;30;20484;-87
2023/09/23 05:16:30;;;;;;;6.07;5.32;;;;;;;;;;4724499;30;20124;-85
2023/09/23 05:18:56;;;;;;;9.02;5.78;;;;;;;;;;4688429;30;20056;-87
2023/09/23 05:21:22;;;;;;;6.10;5.50;;;;;;;;;;4688131;30;20053;-88
2023/09/23 05:23:49;;;;;;;6.90;6.20;;;;;;;;;;4673942;30;20419;-89
2023/09/23 05:26:16;;;;;;;6.18;5.57;;;;;;;;;;4694717;30;20045;-88
2023/09/23 05:28:45;;;;;;;7.68;5.80;;;;;;;;;;4720273;30;20064;-89
2023/09/23 05:31:14;;;;;;;8.18;6.43;;;;;;;;;;4733593;30;20380;-88
2023/09/23 05:33:41;;;;;;;6.72;5.57;;;;;;;;;;4719834;30;20057;-88
2023/09/23 05:36:07;;;;;;;6.63;5.93;;;;;;;;;;4698732;30;20045;-88
2023/09/23 05:38:36;;;;;;;6.55;5.88;;;;;;;;;;4687105;30;20049;-90
2023/09/23 05:41:03;;;;;;;8.68;6.20;;;;;;;;;;4676886;30;20496;-88
2023/09/23 05:43:29;;;;;;;9.13;5.78;;;;;;;;;;4714567;30;20053;-86
2023/09/23 05:45:55;;;;;;;7.32;5.93;;;;;;;;;;4688003;30;20076;-86
2023/09/23 05:48:21;;;;;;;7.00;5.90;;;;;;;;;;4687817;30;20107;-83
2023/09/23 05:50:49;;;;;;;9.50;5.65;;;;;;;;;;4687612;30;20052;-81
2023/09/23 05:53:15;;;;;;;9.85;6.30;;;;;;;;;;4719530;30;20052;-81
2023/09/23 05:55:41;;;;;;;7.30;6.03;;;;;;;;;;4734755;30;20057;-82
2023/09/23 05:58:08;;;;;;;10.60;6.70;;;;;;;;;;4719212;30;20061;-82
2023/09/23 06:00:34;;;;;;;8.57;6.68;;;;;;;;;;4705040;30;20107;-82
2023/09/23 06:03:00;;;;;;;6.90;6.20;;;;;;;;;;4704557;30;20084;-83
2023/09/23 06:05:26;;;;;;;8.48;6.25;;;;;;;;;;4719629;30;20049;-86
2023/09/23 06:07:53;;;;;;;6.97;6.00;;;;;;;;;;4734109;30;20055;-82
2023/09/23 06:10:19;;;;;;;8.00;6.53;;;;;;;;;;4718774;30;20048;-82
2023/09/23 06:12:45;;;;;;;8.10;6.68;;;;;;;;;;4704313;30;20091;-83
2023/09/23 06:15:11;;;;;;;9.27;7.22;;;;;;;;;;4718905;30;20057;-86
2023/09/23 06:17:37;;;;;;;8.43;7.13;;;;;;;;;;4704673;30;20048;-87
2023/09/23 06:20:04;;;;;;;8.27;7.38;;;;;;;;;;4716981;30;20053;-83
2023/09/23 06:22:33;;;;;;;10.27;7.53;;;11.40;24.10;;;;;;4719135;30;20388;-87
2023/09/23 06:24:59;;;;;;;12.07;6.85;;;;;;;;;;4704080;30;20418;-87
2023/09/23 06:27:26;;;;;;;10.88;7.93;;;;;;;;;;4718820;30;20059;-86
2023/09/23 06:29:53;;;;;;;9.63;8.13;;;;;;;;;;4716822;30;20403;-86
2023/09/23 06:32:19;;;;;;;9.30;7.78;;;;;;;;;;4732883;30;20507;-87
2023/09/23 06:34:45;;;;;;;10.10;8.07;;;;;;;;;;4733076;30;20436;-86
2023/09/23 06:37:11;;;;;;;14.55;8.20;;;;;;;;;;4718169;30;20059;-87
2023/09/23 06:39:37;;;;;;;12.43;8.30;;;;;;;;;;4707424;30;20064;-86
2023/09/23 06:42:03;;;;;;;11.05;8.93;;;;;;;;;;4701023;30;20419;-85
2023/09/23 06:44:29;;;;;;;14.85;8.75;;;;;;;;;;4672327;30;20056;-87
2023/09/23 06:46:56;;;;;;;12.45;9.20;;;;;;;;;;4686726;30;20041;-86
2023/09/23 06:49:22;;;;;;;13.45;9.23;;;;;;;;;;4723597;30;20056;-85
2023/09/23 06:51:48;;;;;;;14.85;10.35;;;;;;;;;;4718511;30;20115;-86
2023/09/23 06:54:14;;;;;;;11.15;8.40;;;;;;;;;;4733786;30;20048;-86
2023/09/23 06:56:40;;;;;;;13.13;7.95;;;;;;;;;;4717383;30;20102;-86
2023/09/23 06:59:07;;;;;;;11.02;8.32;;;;;;;;;;4725391;30;20057;-87
2023/09/23 07:01:35;;;;;;;14.27;9.40;;;;;;;;;;4687400;30;20389;-85
2023/09/23 07:04:02;;;;;;;13.25;9.00;;;;;;;;;;4686517;30;20404;-85
2023/09/23 07:06:28;;;;;;;15.27;8.65;;;;;;;;;;4700943;30;20060;-85
2023/09/23 07:08:54;;;;;;;13.63;8.93;;;;;;;;;;4686351;30;20049;-85
2023/09/23 07:11:20;;;;;;;17.58;9.88;;;;;;;;;;4686249;30;20503;-85
2023/09/23 07:13:46;;;;;;;14.38;10.15;;;;;;;;;;4687693;30;20044;-84
2023/09/23 07:16:14;;;;;;;11.20;9.25;;;;;;;;;;4717707;30;20049;-86
2023/09/23 07:18:40;;;;;;;13.05;9.00;;;;;;;;;;4717417;30;20199;-86
2023/09/23 07:21:06;;;;;;;13.90;9.88;;;;;;;;;;4703554;30;20124;-84
2023/09/23 07:23:32;;;;;;;13.60;9.60;;;;;;;;;;4702355;30;20563;-85
2023/09/23 07:26:00;;;;;;;11.77;9.73;;;;;;;;;;4685975;30;20049;-85
2023/09/23 07:28:27;;;;;;;19.38;11.18;;;;;;;;;;4686213;30;20467;-85
2023/09/23 07:30:53;;;;;;;17.50;10.63;;;;;;;;;;4685969;30;20057;-85
2023/09/23 07:33:19;;;;;;;13.20;10.68;;;;;;;;;;4699498;30;20053;-85
2023/09/23 07:35:46;;;;;;;12.77;9.43;;;;;;;;;;4717792;30;20053;-86
2023/09/23 07:38:12;;;;;;;17.50;10.10;;;;;;;;;;4717230;30;20060;-87
2023/09/23 07:40:41;;;;;;;12.50;8.57;;;;;;;;;;4715757;30;20045;-85
2023/09/23 07:43:07;;;;;;;13.75;8.80;;;;;;;;;;4731778;30;20507;-84
2023/09/23 07:45:34;;;;;;;14.65;9.18;;;;;;;;;;4717693;30;20061;-85
2023/09/23 07:48:00;;;;;;;9.15;8.20;;;;;;;;;;4731956;30;20053;-86
2023/09/23 07:50:26;;;;;;;13.77;8.10;;;;;;;;;;4710379;30;20544;-87
2023/09/23 07:52:52;;;;;;;10.02;8.30;;;;;;;;;;4685640;30;20527;-86
2023/09/23 07:55:18;;;;;;;12.02;8.65;;;;;;;;;;4685445;30;20504;-86
2023/09/23 07:57:44;;;;;;;12.63;8.80;;;;;;;;;;4686235;30;20149;-86
2023/09/23 08:00:11;;;;;;;13.68;8.45;;;;;;;;;;4676266;30;20060;-86
2023/09/23 08:02:37;;;;;;;10.57;8.95;;;;;;;;;;4733808;30;20093;-85
2023/09/23 08:05:03;;;;;;;11.95;8.27;;;;;;;;;;4720573;30;20134;-85
2023/09/23 08:07:33;;;;;;;10.60;8.20;;;;;;;;;;4735213;30;20059;-88
2023/09/23 08:09:59;;;;;;;10.23;8.40;;;;;;;;;;4705667;30;20052;-87
2023/09/23 08:12:25;;;;;;;10.13;8.50;;;;;;;;;;4720115;30;20053;-86
2023/09/23 08:14:51;;;;;;;11.77;8.13;;;;;;;;;;4705697;30;20396;-87
2023/09/23 08:17:18;;;;;;;11.30;8.02;;;;;;;;;;4706114;30;20049;-87
2023/09/23 08:19:44;;;;;;;9.75;7.28;;;;;;;;;;4719955;30;20128;-87
2023/09/23 08:22:11;;;;;;;10.52;7.30;;;;;;;;;;4720662;30;20086;-87
2023/09/23 08:24:37;;;;;;;5.00;4.50;;;;;;;;;;4688878;30;20064;-85
2023/09/23 08:27:04;;;;;;;5.45;4.28;;;;;;;;;;4702877;30;20052;-85
2023/09/23 08:29:30;;;;;;;7.40;5.05;;;;;;;;;;4703480;30;20053;-85
2023/09/23 08:31:56;;;;;;;7.10;4.60;;;;;;;;;;4703222;30;20049;-85
2023/09/23 08:34:24;;;;;;;11.15;6.20;;;;;;;;;;4674206;30;20581;-86
2023/09/23 08:36:51;;;;;;;9.13;5.70;;;;;;;;;;4688557;30;20049;-85
2023/09/23 08:39:18;;;;;;;8.30;4.97;;;;;;;;;;4748716;30;20049;-86
2023/09/23 08:41:52;;;;;;;7.88;6.00;;;;;;;;;;4688119;30;20057;-85
2023/09/23 08:44:20;;;;;;;9.85;5.75;;;;;;;;;;4688270;30;20118;-82
2023/09/23 08:46:50;;;;;;;7.35;5.13;;;;;;;;;;4688384;30;20496;-82
2023/09/23 08:49:17;;;;;;;8.23;5.47;;;;;;;;;;4688940;30;20052;-82
2023/09/23 08:51:44;;;;;;;7.68;5.00;;;;;;;;;;4734106;30;20521;-82
2023/09/23 08:54:11;;;;;;;9.07;4.85;;;;;;;;;;4734502;30;20511;-82
2023/09/23 08:56:37;;;;;;;7.15;4.18;;;;;;;;;;4719480;30;20068;-82
2023/09/23 08:59:03;;;;;;;9.13;4.18;;;;;;;;;;4719052;30;20598;-82
2023/09/23 09:01:29;;;;;;;10.80;4.20;;;;;;;;;;4717959;30;20049;-82
2023/09/23 09:03:58;;;;;;;5.35;4.40;;;;;;;;;;4687560;30;20064;-82
2023/09/23 09:06:29;;;;;;;4.43;3.50;;;;;;;;;;4688006;30;20049;-82
2023/09/23 09:08:55;;;;;;;10.98;3.25;;;;;;;;;;4687841;30;20099;-82
2023/09/23 09:11:23;;;;;;;5.72;2.97;;;15.50;31.90;;;;;;4702016;30;20063;-82
2023/09/23 09:13:52;;;;;;;5.22;2.75;;;;;;;;;;4703227;30;20529;-84
2023/09/23 09:16:20;;;;;;;8.25;3.42;;;;;;;;;;4719178;30;20190;-84
2023/09/23 09:18:50;;;;;;;7.25;3.58;;;;;;;;;;4719110;30;20056;-84
2023/09/23 09:21:16;;;;;;;5.57;3.72;;;;;;;;;;4733842;30;20053;-84
2023/09/23 09:23:42;;;;;;;5.30;3.25;;;;;;;;;;4716989;30;20107;-85
2023/09/23 09:26:09;;;;;;;4.70;3.55;;;;;;;;;;4673401;30;20590;-84
2023/09/23 09:28:35;;;;;;;7.57;2.80;;;;;;;;;;4687484;30;20136;-84
2023/09/23 09:31:02;;;;;;;5.22;3.60;;;;;;;;;;4687797;30;20060;-83
2023/09/23 09:33:29;;;;;;;5.03;3.72;;;;;;;;;;4701860;30;20053;-82
2023/09/23 09:35:58;;;;;;;5.38;3.38;;;;;;;;;;4687623;30;20508;-83
2023/09/23 09:38:25;;;;;;;5.28;3.35;;;;;;;;;;4701696;30;20087;-83
2023/09/23 09:41:00;;;;;;;4.97;3.20;;;16.10;25.50;;;;;;4702186;30;20569;-84
2023/09/23 09:43:28;;;;;;;7.63;3.55;;;;;;;;;;4687921;30;20064;-83
2023/09/23 09:45:55;;;;;;;6.32;3.03;;;16.20;18.60;;;;;;4719255;30;20059;-83
2023/09/23 09:48:26;;;;;;;9.07;3.78;;;16.30;22.00;;;;;;4719338;30;20062;-83
2023/09/23 09:50:53;;;;;;;4.57;2.60;;;;;;;;;;4713388;30;20060;-82
2023/09/23 09:53:20;;;;;;;3.67;2.95;;;16.30;19.00;;;;;;4687472;30;20142;-83
2023/09/23 09:55:46;;;;;;;6.15;2.03;;;;;;;;;;4686880;30;20052;-83
2023/09/23 09:58:13;;;;;;;3.10;2.13;;;;;;;;;;4673039;30;20511;-82
2023/09/23 10:00:43;;;;;;;2.88;2.08;;;16.20;14.00;;;;;;4686885;30;20104;-81
2023/09/23 10:03:12;;;;;;;3.80;2.25;;;16.10;16.70;;;;;;4687276;30;20144;-81
2023/09/23 10:05:46;;;;;;;3.95;2.65;;;;;;;;;;4687468;30;20088;-83
2023/09/23 10:08:15;;;;;;;5.55;2.25;;;16.00;13.50;;;;;;4702198;30;20076;-83
2023/09/23 10:10:48;;;;;;;3.08;1.90;;;16.00;14.30;;;;;;4704712;30;20052;-81
2023/09/23 10:13:15;;;;;;;2.87;2.10;;;;;;;;;;4704501;30;20059;-83
2023/09/23 10:15:41;;;;;;;5.30;1.52;;;;;;;;;;4704297;30;20471;-82
2023/09/23 10:18:14;;;;;;;1.67;1.38;;;;;;;;;;4704427;30;20065;-83
2023/09/23 10:20:56;;;;;;;7.38;2.47;;;;;;;;;;4702155;30;20080;-82
2023/09/23 10:23:28;;;;;;;3.90;2.90;;;;;;;;;;4704631;30;20113;-82
2023/09/23 10:25:54;;;;;;;4.00;3.42;;;;;;;;;;4718571;30;20092;-85
2023/09/23 10:28:21;;;;;;;4.82;3.45;;;;;;;;;;4717385;30;20111;-84
2023/09/23 10:31:24;;;;;;;3.67;2.95;;;16.40;18.90;;;;;;4701561;30;20080;-83
2023/09/23 10:33:50;;;;;;;6.70;2.72;;;;;;;;;;4695474;30;20508;-84
2023/09/23 10:36:20;;;;;;;2.85;2.53;;;16.40;13.40;;;;;;4710377;30;20503;-83
2023/09/23 10:38:46;;;;;;;3.13;2.55;;;;;;;;;;4704484;30;20120;-84
2023/09/23 10:41:12;;;;;;;2.88;1.45;;;16.50;23.70;;;;;;4719063;30;20058;-84
2023/09/23 10:43:38;;;;;;;4.95;1.20;;;;;;;;;;4703942;30;20414;-84
2023/09/23 10:46:05;;;;;;;2.03;1.20;;;;;;;;;;4723485;30;20053;-83
2023/09/23 10:48:32;;;;;;;1.92;1.17;;;;;;;;;;4687627;30;20472;-84
2023/09/23 10:50:58;;;;;;;4.13;1.45;;;;;;;;;;4687101;30;20052;-84
2023/09/23 10:53:28;;;;;;;1.52;1.25;;;16.40;1.00;;;;;;4686804;30;20100;-83
2023/09/23 10:55:55;;;;;;;2.65;1.38;;;;;;;;;;4680584;30;20076;-82
2023/09/23 10:58:21;;;;;;;2.63;1.17;;;;;;;;;;4718244;30;20114;-85
2023/09/23 11:00:48;;;;;;;3.25;1.10;;;;;;;;;;4732208;30;20507;-86
2023/09/23 11:03:19;;;;;;;3.05;1.27;;;16.80;1.00;;;;;;4718187;30;20060;-85
2023/09/23 11:05:54;;;;;;;3.53;1.25;;;17.00;1.00;;;;;;4709630;30;20049;-86
2023/09/23 11:08:20;;;;;;;2.42;1.05;;;16.80;1.00;;;;;;4717940;30;20052;-84
2023/09/23 11:10:48;;;;;;;2.17;1.42;;;16.80;1.00;;;;;;4717868;30;20052;-85
2023/09/23 11:13:14;;;;;;;1.85;1.13;;;16.60;1.00;;;;;;4717423;30;20473;-84
2023/09/23 11:15:45;;;;;;;1.33;1.20;;;16.70;1.00;;;;;;4703371;30;20049;-85
2023/09/23 11:18:15;;;;;;;4.47;1.23;;;;;;;;;;4718079;30;20434;-84
2023/09/23 11:20:42;;;;;;;1.30;1.20;;;17.00;1.00;;;;;;4717906;30;20106;-85
2023/09/23 11:23:10;;;;;;;4.82;0.90;;;;;;;;;;4703099;30;20053;-86
2023/09/23 11:25:41;;;;;;;2.17;0.90;;;;;;;;;;4725706;30;20057;-85
2023/09/23 11:28:07;;;;;;;3.00;1.00;;;;;;;;;;4705450;30;20168;-85
2023/09/23 11:30:33;;;;;;;1.08;0.80;;;;;;;;;;4718190;30;20041;-84
2023/09/23 11:33:00;;;;;;;0.82;0.75;;;;;;;;;;4718337;30;20075;-86
2023/09/23 11:35:26;;;;;;;0.90;0.90;;;;;;;;;;4719760;30;20052;-87
2023/09/23 11:37:58;;;;;;;0.52;0.52;;;16.60;1.00;;;;;;4736207;30;20045;-86
2023/09/23 11:40:23;;;;;;;3.22;0.60;;;16.60;1.00;;;;;;4707178;30;20055;-87
2023/09/23 11:42:50;;;;;;;1.33;0.68;;;;;;;;;;4708079;30;20056;-85
2023/09/23 11:45:16;;;;;;;3.08;0.65;;;;;;;;;;4723596;30;20059;-86
2023/09/23 11:47:42;;;;;;;0.68;0.68;;;;;;;;;;4737224;30;20099;-87
2023/09/23 11:50:08;;;;;;;0.55;0.52;;;;;;;;;;4691643;30;20064;-86
2023/09/23 11:52:35;;;;;;;2.72;0.70;;;;;;;;;;4692362;30;20056;-88
2023/09/23 11:55:01;;;;;;;0.80;0.68;;;;;;;;;;4721236;30;20143;-87
2023/09/23 11:57:27;;;;;;;0.80;0.80;;;;;;;;;;4692290;30;20150;-85
2023/09/23 11:59:54;;;;;;;3.28;0.93;;;;;;;;;;4722413;30;20053;-87
2023/09/23 12:02:21;;;;;;;1.75;0.80;;;;;;;;;;4738893;30;20523;-88
2023/09/23 12:04:48;;;;;;;2.20;0.82;;;;;;;;;;4719053;30;20053;-88
2023/09/23 12:07:21;;;;;;;5.57;1.10;;;;;;;;;;4692717;30;20060;-86
2023/09/23 12:09:48;;;;;;;2.80;1.05;;;;;;;;;;4706522;30;20048;-86
2023/09/23 12:12:14;;;;;;;1.85;1.05;;;;;;;;;;4738345;30;20481;-85
2023/09/23 12:14:43;;;;;;;1.55;0.90;;;;;;;;;;4711835;30;20377;-84
2023/09/23 12:17:14;;;;;;;2.30;1.10;;;16.20;1.00;;;;;;4676324;30;20056;-85
2023/09/23 12:19:40;;;;;;;1.75;1.17;;;;;;;;;;4702219;30;20059;-86
2023/09/23 12:22:12;;;;;;;4.43;1.10;;;;;;;;;;4736352;30;20581;-84
2023/09/23 12:24:38;;;;;;;2.58;1.08;;;;;;;;;;4711366;30;20053;-84
2023/09/23 12:27:07;;;;;;;1.38;1.10;;;;;;;;;;4689650;30;20083;-84
2023/09/23 12:29:39;;;;;;;1.30;1.13;;;16.60;1.00;;;;;;4693381;30;20041;-83
2023/09/23 12:32:05;;;;;;;3.22;1.20;;;16.90;1.00;;;;;;4703838;30;20052;-84
2023/09/23 12:34:32;;;;;;;4.32;1.25;;;;;;;;;;4699038;30;20060;-85
2023/09/23 12:36:58;;;;;;;1.38;1.27;;;;;;;;;;4706318;30;20388;-85
2023/09/23 12:39:24;;;;;;;2.72;1.40;;;;;;;;;;4705881;30;20056;-85
2023/09/23 12:41:51;;;;;;;1.90;1.17;;;;;;;;;;4705493;30;20048;-83
2023/09/23 12:44:20;;;;;;;3.28;1.40;;;;;;;;;;4704541;30;20569;-83
2023/09/23 12:46:46;;;;;;;1.67;1.42;;;;;;;;;;4733566;30;20407;-85
2023/09/23 12:49:12;;;;;;;3.88;3.10;;;;;;;;;;4734472;30;20142;-86
2023/09/23 12:51:39;;;;;;;1.20;1.10;;;;;;;;;;4734648;30;20475;-86
2023/09/23 12:54:08;;;;;;;1.67;1.45;;;17.10;1.00;;;;;;4729756;30;20053;-83
2023/09/23 12:56:36;;;;;;;1.80;1.40;;;;;;;;;;4702820;30;20075;-85
2023/09/23 12:59:02;;;;;;;1.20;1.10;;;;;;;;;;4688097;30;20049;-85
2023/09/23 13:01:30;;;;;;;1.42;1.10;;;;;;;;;;4687443;30;20059;-87
2023/09/23 13:03:57;;;;;;;2.25;1.50;;;;;;;;;;4708035;30;20056;-85
2023/09/23 13:06:23;;;;;;;2.17;1.27;;;;;;;;;;4718982;30;20140;-86
2023/09/23 13:08:49;;;;;;;5.43;1.90;;;;;;;;;;4719334;30;20091;-83
2023/09/23 13:11:16;;;;;;;2.47;1.05;;;;;;;;;;4733831;30;20087;-83
2023/09/23 13:13:42;;;;;;;2.30;1.23;;;;;;;;;;4727976;30;20135;-85
2023/09/23 13:16:08;;;;;;;6.82;1.42;;;;;;;;;;4708611;30;20044;-84
2023/09/23 13:18:35;;;;;;;2.25;1.58;;;;;;;;;;4719264;30;20411;-85
2023/09/23 13:21:03;;;;;;;3.95;1.40;;;18.00;1.00;;;;;;4718989;30;20239;-84
2023/09/23 13:23:29;;;;;;;3.30;0.98;;;;;;;;;;4704411;30;20456;-85
2023/09/23 13:25:55;;;;;;;2.80;1.30;;;;;;;;;;4713563;30;20126;-84
2023/09/23 13:28:21;;;;;;;4.40;1.13;;;;;;;;;;4672914;30;20057;-85
2023/09/23 13:30:47;;;;;;;3.17;0.73;;;;;;;;;;4688379;30;20053;-85
2023/09/23 13:33:13;;;;;;;1.52;0.95;;;18.10;1.00;;;;;;4687149;30;20139;-86
2023/09/23 13:35:40;;;;;;;1.02;0.70;;;;;;;;;;4686977;30;20140;-86
2023/09/23 13:38:06;;;;;;;6.68;0.88;;;;;;;;;;4687205;30;20147;-86
2023/09/23 13:40:35;;;;;;;1.38;0.70;;;;;;;;;;4697368;30;20052;-86
2023/09/23 13:43:02;;;;;;;2.92;0.80;;;;;;;;;;4718639;30;20052;-86
2023/09/23 13:45:28;;;;;;;1.50;0.60;;;;;;;;;;4704226;30;20048;-86
2023/09/23 13:47:54;;;;;;;0.70;0.70;;;;;;;;;;4718721;30;20052;-87
2023/09/23 13:50:20;;;;;;;3.22;1.20;;;;;;;;;;4709766;30;20057;-86
2023/09/23 13:52:46;;;;;;;4.15;1.00;;;;;;;;;;4686800;30;20053;-88
2023/09/23 13:55:13;;;;;;;3.20;0.98;;;;;;;;;;4701193;30;20392;-86
2023/09/23 13:57:39;;;;;;;4.05;0.93;;;;;;;;;;4716106;30;20052;-86
2023/09/23 14:00:08;;;;;;;1.23;0.70;;;17.20;1.00;;;;;;4693855;30;1109005;-88
2023/09/23 14:02:34;;;;;;;0.95;0.73;;;;;;;;;;4690925;30;20136;-88
2023/09/23 14:05:01;;;;;;;2.22;1.23;;;;;;;;;;4706511;30;20052;-88
2023/09/23 14:07:27;;;;;;;4.40;0.88;;;;;;;;;;4692290;30;20055;-85
2023/09/23 14:09:53;;;;;;;2.05;0.80;;;;;;;;;;4711412;30;20048;-88
2023/09/23 14:12:19;;;;;;;1.33;0.70;;;;;;;;;;4723535;30;20049;-89
2023/09/23 14:14:45;;;;;;;2.28;0.70;;;;;;;;;;4708402;30;20060;-89
2023/09/23 14:17:11;;;;;;;1.83;1.67;;;;;;;;;;4700690;30;20067;-89
2023/09/23 14:19:37;;;;;;;1.48;0.98;;;;;;;;;;4726832;30;20048;-90
2023/09/23 14:22:03;;;;;;;0.98;0.80;;;;;;;;;;4729612;30;20049;-90
2023/09/23 14:24:29;;;;;;;3.50;0.82;;;;;;;;;;4744368;30;20045;-90
2023/09/23 14:26:56;;;;;;;1.88;0.70;;;;;;;;;;4730246;30;20044;-90
2023/09/23 14:29:23;;;;;;;1.17;0.52;;;;;;;;;;4730737;30;20080;-90
2023/09/23 14:31:50;;;;;;;1.08;0.68;;;;;;;;;;4732430;30;20058;-89